Terminal Aerodrome Forecast
Issued by NWS

Home | Current Version | Previous Version | Text Only | Print | Product List | Glossary On
Versions: 1 2 3 4 5 6 7 8 9 10 11 12 13 14 15 16 17 18 19 20 21 22 23
000
FTUS43 KGRB 260600 AAA
TAFCWA
TAF AMD
KCWA 260622Z 2606/2706 00000KT P6SM FEW020 BKN050
     FM270100 31004KT 6SM -SN BR SCT015 OVC030
      AMD LTD TO CLD VIS AND WIND TIL 261200=

USA.gov is the U.S. government's official web portal to all federal, state and local government web resources and services.